Terminal Aerodrome Forecast
Issued by NWS Cleveland, OH

Home | Current Version | Previous Version | Graphics & Text | Print | Product List | Glossary Off
Versions: 1 2 3 4 5 6 7 8 9 10 11 12 13 14 15

104
FTUS41 KCLE 291125
TAFTOL
TAF
KTOL 291125Z 2912/3012 20010KT P6SM VCSH SCT050 BKN120
     FM291400 22014G24KT P6SM VCSH SCT045 BKN100
     FM300000 22010KT P6SM -SHRA VCTS SCT040 BKN080CB
     FM300800 22009KT 5SM BR VCSH SCT025 BKN080=

USA.gov is the U.S. government's official web portal to all federal, state and local government web resources and services.